createdAt,value
2023-01-12T00:01:36.846Z,95170.34
2023-01-12T00:04:03.633Z,95138.94
2023-01-12T00:06:32.288Z,95166.84
2023-01-12T00:09:02.366Z,95170.31
2023-01-12T00:11:29.380Z,95163.81
2023-01-12T00:13:56.097Z,95170.31
2023-01-12T00:16:35.982Z,95150.03
2023-01-12T00:19:12.915Z,95171.38
2023-01-12T00:22:06.859Z,95170.56
2023-01-12T00:24:39.123Z,95173.00
2023-01-12T00:27:09.008Z,95179.13
2023-01-12T00:29:36.564Z,95154.72
2023-01-12T00:32:04.819Z,95144.34
2023-01-12T00:34:31.629Z,95177.56
2023-01-12T00:37:00.308Z,95178.72
2023-01-12T00:39:26.999Z,95167.94
2023-01-12T00:42:12.082Z,95186.34
2023-01-12T00:44:57.456Z,95174.91
2023-01-12T00:47:24.062Z,95140.50
2023-01-12T00:49:50.783Z,95162.56
2023-01-12T00:52:29.903Z,95182.53
2023-01-12T00:54:57.493Z,95176.09
2023-01-12T00:57:24.258Z,95176.09
2023-01-12T00:59:54.949Z,95165.47
2023-01-12T01:02:22.079Z,95173.09
2023-01-12T01:04:49.532Z,95177.69
2023-01-12T01:07:16.193Z,95182.28
2023-01-12T01:09:44.269Z,95182.28
2023-01-12T01:12:10.999Z,95164.75
2023-01-12T01:14:37.626Z,95181.13
2023-01-12T01:17:04.204Z,95187.28
2023-01-12T01:19:30.818Z,95173.94
2023-01-12T01:21:57.394Z,95181.19
2023-01-12T01:24:24.171Z,95178.13
2023-01-12T01:26:51.566Z,95181.94
2023-01-12T01:29:18.668Z,95185.75
2023-01-12T01:31:47.770Z,95184.59
2023-01-12T01:34:14.825Z,95183.47
2023-01-12T01:36:41.893Z,95174.28
2023-01-12T01:39:08.861Z,95178.56
2023-01-12T01:41:35.534Z,95165.19
2023-01-12T01:44:26.745Z,95167.84
2023-01-12T01:47:03.441Z,95185.84
2023-01-12T01:49:32.451Z,95200.66
2023-01-12T01:52:13.720Z,95200.72
2023-01-12T01:54:46.496Z,95193.44
2023-01-12T01:57:14.872Z,95204.16
2023-01-12T01:59:48.936Z,95180.13
2023-01-12T02:02:16.543Z,95177.09
2023-01-12T02:04:43.464Z,95180.81
2023-01-12T02:07:10.959Z,95188.44
2023-01-12T02:09:38.534Z,95196.50
2023-01-12T02:12:41.083Z,95191.88
2023-01-12T02:15:26.703Z,95176.22
2023-01-12T02:17:59.080Z,95197.69
2023-01-12T02:20:47.223Z,95162.13
2023-01-12T02:23:16.911Z,95193.41
2023-01-12T02:26:01.385Z,95179.66
2023-01-12T02:28:49.934Z,95194.59
2023-01-12T02:31:51.250Z,95192.38
2023-01-12T02:34:36.502Z,95190.81
2023-01-12T02:37:09.336Z,95177.81
2023-01-12T02:39:50.768Z,95192.75
2023-01-12T02:42:41.343Z,95180.13
2023-01-12T02:45:23.461Z,95188.47
2023-01-12T02:47:56.029Z,95192.00
2023-01-12T02:50:40.005Z,95175.19
2023-01-12T02:53:12.716Z,95188.16
2023-01-12T02:55:41.237Z,95196.16
2023-01-12T02:58:12.711Z,95185.47
2023-01-12T03:00:43.009Z,95185.84
2023-01-12T03:03:09.653Z,95180.81
2023-01-12T03:05:40.949Z,95165.59
2023-01-12T03:08:14.072Z,95170.13
2023-01-12T03:11:06.802Z,95167.84
2023-01-12T03:13:37.392Z,95173.97
2023-01-12T03:16:06.469Z,95184.66
2023-01-12T03:18:38.723Z,95186.59
2023-01-12T03:21:20.708Z,95183.91
2023-01-12T03:23:54.248Z,95190.03
2023-01-12T03:26:27.855Z,95180.38
2023-01-12T03:29:03.954Z,95174.72
2023-01-12T03:31:31.097Z,95157.84
2023-01-12T03:33:58.262Z,95177.31
2023-01-12T03:36:35.528Z,95192.25
2023-01-12T03:39:20.287Z,95179.97
2023-01-12T03:41:57.554Z,95179.97
2023-01-12T03:44:40.226Z,95167.00
2023-01-12T03:47:20.830Z,95184.50
2023-01-12T03:49:52.824Z,95158.22
2023-01-12T03:52:22.059Z,95170.81
2023-01-12T03:54:50.083Z,95185.28
2023-01-12T03:57:17.623Z,95165.06
2023-01-12T03:59:44.315Z,95183.75
2023-01-12T04:02:10.961Z,95172.59
2023-01-12T04:04:37.670Z,95166.47
2023-01-12T04:07:04.425Z,95164.59
2023-01-12T04:09:31.250Z,95130.16
2023-01-12T04:12:13.057Z,95156.88
2023-01-12T04:14:40.554Z,95161.09
2023-01-12T04:17:09.476Z,95166.84
2023-01-12T04:19:36.094Z,95146.94
2023-01-12T04:22:20.999Z,95179.06
2023-01-12T04:24:48.695Z,95167.53
2023-01-12T04:27:16.310Z,95152.25
2023-01-12T04:29:43.163Z,95147.00
2023-01-12T04:32:10.216Z,95164.94
2023-01-12T04:34:37.012Z,95177.91
2023-01-12T04:37:03.952Z,95175.59
2023-01-12T04:39:30.499Z,95168.69
2023-01-12T04:41:57.284Z,95175.28
2023-01-12T04:44:23.903Z,95167.94
2023-01-12T04:46:51.467Z,95188.97
2023-01-12T04:49:18.173Z,95173.72
2023-01-12T04:51:45.259Z,95199.31
2023-01-12T04:54:12.227Z,95159.53
2023-01-12T04:56:39.099Z,95185.22
2023-01-12T04:59:07.377Z,95183.66
2023-01-12T05:01:34.238Z,95192.84
2023-01-12T05:04:01.138Z,95197.13
2023-01-12T05:06:28.920Z,95194.41
2023-01-12T05:09:14.327Z,95203.19
2023-01-12T05:11:40.963Z,95197.03
2023-01-12T05:14:07.703Z,95199.03
2023-01-12T05:16:34.390Z,95198.66
2023-01-12T05:19:01.078Z,95206.31
2023-01-12T05:21:27.659Z,95210.88
2023-01-12T05:23:54.377Z,95182.28
2023-01-12T05:26:21.234Z,95215.88
2023-01-12T05:28:49.804Z,95202.16
2023-01-12T05:31:17.159Z,95217.06
2023-01-12T05:33:43.921Z,95191.88
2023-01-12T05:36:13.867Z,95232.41
2023-01-12T05:38:41.156Z,95221.66
2023-01-12T05:41:10.303Z,95241.25
2023-01-12T05:43:52.205Z,95241.69
2023-01-12T05:46:30.703Z,95257.38
2023-01-12T05:48:58.110Z,95203.91
2023-01-12T05:51:27.288Z,95247.81
2023-01-12T05:53:54.987Z,95242.50
2023-01-12T05:56:25.863Z,95255.81
2023-01-12T05:58:58.646Z,95254.66
2023-01-12T06:01:25.919Z,95259.28
2023-01-12T06:03:54.217Z,95242.84
2023-01-12T06:06:22.526Z,95264.19
2023-01-12T06:08:52.145Z,95258.16
2023-01-12T06:11:38.774Z,95252.41
2023-01-12T06:14:05.849Z,95255.44
2023-01-12T06:16:32.511Z,95259.28
2023-01-12T06:18:59.089Z,95251.66
2023-01-12T06:21:25.825Z,95229.00
2023-01-12T06:23:52.559Z,95251.97
2023-01-12T06:26:19.246Z,95229.00
2023-01-12T06:28:45.970Z,95254.22
2023-01-12T06:31:14.331Z,95238.09
2023-01-12T06:33:41.479Z,95235.09
2023-01-12T06:36:09.171Z,95243.47
2023-01-12T06:38:37.323Z,95243.38
2023-01-12T06:41:29.276Z,95257.59
2023-01-12T06:43:56.406Z,95215.22
2023-01-12T06:46:23.106Z,95232.06
2023-01-12T06:48:49.885Z,95246.91
2023-01-12T06:51:16.524Z,95252.59
2023-01-12T06:53:43.189Z,95255.38
2023-01-12T06:56:09.790Z,95260.03
2023-01-12T06:58:38.290Z,95255.44
2023-01-12T07:01:05.101Z,95240.47
2023-01-12T07:03:31.668Z,95253.41
2023-01-12T07:05:59.446Z,95272.53
2023-01-12T07:08:26.654Z,95260.22
2023-01-12T07:10:53.294Z,95270.97
2023-01-12T07:13:20.216Z,95278.69
2023-01-12T07:15:46.835Z,95271.34
2023-01-12T07:18:13.560Z,95277.84
2023-01-12T07:20:40.129Z,95232.78
2023-01-12T07:23:06.698Z,95236.09
2023-01-12T07:25:33.453Z,95262.81
2023-01-12T07:28:00.400Z,95259.38
2023-01-12T07:30:27.691Z,95260.84
2023-01-12T07:32:55.179Z,95244.78
2023-01-12T07:35:22.105Z,95269.16
2023-01-12T07:37:50.549Z,95238.88
2023-01-12T07:40:18.104Z,95263.63
2023-01-12T07:42:44.853Z,95262.56
2023-01-12T07:45:11.944Z,95249.84
2023-01-12T07:47:39.379Z,95269.66
2023-01-12T07:50:06.956Z,95270.84
2023-01-12T07:52:33.883Z,95249.13
2023-01-12T07:55:00.562Z,95252.88
2023-01-12T07:57:27.245Z,95261.69
2023-01-12T07:59:53.858Z,95261.19
2023-01-12T08:02:20.580Z,95263.53
2023-01-12T08:04:47.511Z,95265.75
2023-01-12T08:07:15.216Z,95276.91
2023-01-12T08:09:42.055Z,95271.13
2023-01-12T08:12:08.759Z,95265.72
2023-01-12T08:14:38.271Z,95271.72
2023-01-12T08:17:12.693Z,95276.22
2023-01-12T08:19:45.061Z,95271.56
2023-01-12T08:22:18.055Z,95282.47
2023-01-12T08:25:10.856Z,95283.66
2023-01-12T08:27:43.484Z,95287.44
2023-01-12T08:30:13.355Z,95272.00
2023-01-12T08:32:40.106Z,95273.16
2023-01-12T08:35:07.636Z,95274.53
2023-01-12T08:37:35.319Z,95274.13
2023-01-12T08:40:04.813Z,95278.75
2023-01-12T08:42:31.878Z,95264.19
2023-01-12T08:44:58.723Z,95262.72
2023-01-12T08:47:27.723Z,95279.75
2023-01-12T08:49:54.956Z,95277.44
2023-01-12T08:52:21.839Z,95278.69
2023-01-12T08:54:49.286Z,95269.06
2023-01-12T08:57:19.914Z,95279.75
2023-01-12T08:59:46.676Z,95262.38
2023-01-12T09:02:14.743Z,95289.72
2023-01-12T09:04:41.888Z,95291.19
2023-01-12T09:07:09.904Z,95263.03
2023-01-12T09:09:36.971Z,95261.06
2023-01-12T09:12:04.370Z,95282.94
2023-01-12T09:14:30.983Z,95285.22
2023-01-12T09:16:57.657Z,95278.72
2023-01-12T09:19:24.598Z,95273.03
2023-01-12T09:21:51.244Z,95286.00
2023-01-12T09:24:17.850Z,95281.94
2023-01-12T09:26:46.359Z,95283.44
2023-01-12T09:29:14.250Z,95274.66
2023-01-12T09:31:43.718Z,95279.66
2023-01-12T09:34:11.100Z,95270.44
2023-01-12T09:36:39.657Z,95268.53
2023-01-12T09:39:15.529Z,95279.25
2023-01-12T09:42:08.981Z,95281.78
2023-01-12T09:44:59.511Z,95278.41
2023-01-12T09:47:53.770Z,95276.34
2023-01-12T09:50:31.729Z,95270.31
2023-01-12T09:53:07.441Z,95260.81
2023-01-12T09:55:47.758Z,95268.72
2023-01-12T09:58:45.295Z,95274.91
2023-01-12T10:01:24.284Z,95266.03
2023-01-12T10:03:56.389Z,95255.06
2023-01-12T10:06:23.086Z,95268.13
2023-01-12T10:08:52.211Z,95261.91
2023-01-12T10:11:43.308Z,95255.78
2023-01-12T10:14:28.268Z,95274.13
2023-01-12T10:17:00.550Z,95263.31
2023-01-12T10:19:47.540Z,95270.44
2023-01-12T10:22:38.410Z,95273.97
2023-01-12T10:25:23.054Z,95256.31
2023-01-12T10:27:52.802Z,95249.88
2023-01-12T10:30:31.952Z,95257.63
2023-01-12T10:33:16.873Z,95275.25
2023-01-12T10:36:09.157Z,95267.16
2023-01-12T10:38:52.527Z,95254.53
2023-01-12T10:41:24.356Z,95263.06
2023-01-12T10:43:56.705Z,95259.34
2023-01-12T10:46:24.281Z,95253.78
2023-01-12T10:48:54.321Z,95253.41
2023-01-12T10:51:30.861Z,95249.28
2023-01-12T10:54:08.954Z,95247.28
2023-01-12T10:56:52.869Z,95218.31
2023-01-12T10:59:22.177Z,95236.63
2023-01-12T11:02:14.567Z,95237.94
2023-01-12T11:04:48.530Z,95240.97
2023-01-12T11:07:25.760Z,95230.50
2023-01-12T11:09:58.377Z,95235.41
2023-01-12T11:12:35.607Z,95244.47
2023-01-12T11:15:14.379Z,95214.84
2023-01-12T11:17:52.368Z,95225.22
2023-01-12T11:20:30.419Z,95231.63
2023-01-12T11:23:03.036Z,95238.31
2023-01-12T11:25:43.510Z,95226.50
2023-01-12T11:28:34.852Z,95209.88
2023-01-12T11:31:12.431Z,95219.56
2023-01-12T11:33:42.627Z,95220.00
2023-01-12T11:36:31.914Z,95220.34
2023-01-12T11:39:02.158Z,95235.72
2023-01-12T11:42:06.098Z,95220.53
2023-01-12T11:44:36.743Z,95218.75
2023-01-12T11:47:20.593Z,95219.66
2023-01-12T11:49:52.882Z,95223.69
2023-01-12T11:52:19.529Z,95211.94
2023-01-12T11:54:46.285Z,95194.31
2023-01-12T11:57:15.593Z,95214.16
2023-01-12T11:59:54.091Z,95212.56
2023-01-12T12:02:33.195Z,95213.41
2023-01-12T12:05:18.123Z,95207.44
2023-01-12T12:08:05.873Z,95214.50
2023-01-12T12:10:41.174Z,95213.88
2023-01-12T12:13:19.856Z,95205.50
2023-01-12T12:16:07.890Z,95211.44
2023-01-12T12:18:37.620Z,95198.03
2023-01-12T12:21:13.010Z,95195.19
2023-01-12T12:23:45.334Z,95196.69
2023-01-12T12:26:21.311Z,95204.31
2023-01-12T12:29:05.202Z,95201.81
2023-01-12T12:31:53.396Z,95206.41
2023-01-12T12:34:38.248Z,95204.59
2023-01-12T12:37:32.363Z,95202.00
2023-01-12T12:40:17.047Z,95207.63
2023-01-12T12:43:22.626Z,95192.75
2023-01-12T12:46:12.141Z,95196.84
2023-01-12T12:48:59.308Z,95188.19
2023-01-12T12:51:29.016Z,95209.69
2023-01-12T12:53:56.268Z,95207.72
2023-01-12T12:56:25.138Z,95212.34
2023-01-12T12:58:57.390Z,95208.81
2023-01-12T13:01:29.895Z,95206.34
2023-01-12T13:04:03.150Z,95200.06
2023-01-12T13:06:40.210Z,95204.78
2023-01-12T13:09:12.731Z,95204.78
2023-01-12T13:11:45.231Z,95211.91
2023-01-12T13:14:42.553Z,95217.41
2023-01-12T13:17:21.219Z,95215.69
2023-01-12T13:20:24.252Z,95213.00
2023-01-12T13:22:51.686Z,95212.59
2023-01-12T13:25:22.294Z,95207.19
2023-01-12T13:28:00.785Z,95207.94
2023-01-12T13:30:30.339Z,95215.69
2023-01-12T13:33:01.223Z,95222.72
2023-01-12T13:35:33.491Z,95216.88
2023-01-12T13:38:02.984Z,95220.69
2023-01-12T13:40:31.797Z,95216.66
2023-01-12T13:43:19.772Z,95157.13
2023-01-12T13:45:54.688Z,95216.41
2023-01-12T13:48:21.938Z,95213.00
2023-01-12T13:50:53.788Z,95209.84
2023-01-12T13:53:28.602Z,95209.34
2023-01-12T13:56:03.291Z,95206.94
2023-01-12T13:58:38.958Z,95195.56
2023-01-12T14:01:08.177Z,95189.69
2023-01-12T14:03:55.031Z,95207.91
2023-01-12T14:06:29.243Z,95217.34
2023-01-12T14:09:10.037Z,95218.28
2023-01-12T14:11:55.137Z,95207.75
2023-01-12T14:14:43.384Z,95200.59
2023-01-12T14:17:36.267Z,95201.88
2023-01-12T14:20:02.977Z,95206.97
2023-01-12T14:22:29.904Z,95208.63
2023-01-12T14:25:16.037Z,95182.00
2023-01-12T14:27:50.595Z,95208.88
2023-01-12T14:30:17.523Z,95210.66
2023-01-12T14:32:46.327Z,95206.19
2023-01-12T14:35:18.567Z,95193.72
2023-01-12T14:37:50.156Z,95204.09
2023-01-12T14:40:28.265Z,95215.22
2023-01-12T14:43:13.814Z,95215.22
2023-01-12T14:46:14.031Z,95215.63
2023-01-12T14:48:43.767Z,95222.59
2023-01-12T14:51:18.084Z,95217.53
2023-01-12T14:53:47.779Z,95219.59
2023-01-12T14:56:17.180Z,95217.91
2023-01-12T14:58:48.397Z,95224.44
2023-01-12T15:01:33.765Z,95231.00
2023-01-12T15:04:00.910Z,95221.06
2023-01-12T15:06:27.912Z,95219.91
2023-01-12T15:08:58.133Z,95225.47
2023-01-12T15:11:38.375Z,95232.00
2023-01-12T15:14:06.888Z,95229.06
2023-01-12T15:16:52.072Z,95234.38
2023-01-12T15:19:37.307Z,95235.28
2023-01-12T15:22:27.634Z,95237.25
2023-01-12T15:25:14.178Z,95242.09
2023-01-12T15:27:40.816Z,95237.34
2023-01-12T15:30:09.126Z,95242.78
2023-01-12T15:32:48.281Z,95244.00
2023-01-12T15:35:18.083Z,95168.16
2023-01-12T15:37:45.187Z,95259.41
2023-01-12T15:40:15.177Z,95251.75
2023-01-12T15:42:42.326Z,95249.06
2023-01-12T15:45:28.522Z,95257.91
2023-01-12T15:47:55.638Z,95243.69
2023-01-12T15:50:22.272Z,95247.94
2023-01-12T15:52:49.177Z,95256.66
2023-01-12T15:55:18.580Z,95247.06
2023-01-12T15:57:45.270Z,95254.38
2023-01-12T16:00:18.958Z,95260.63
2023-01-12T16:02:47.934Z,95251.34
2023-01-12T16:05:16.897Z,95261.69
2023-01-12T16:07:43.759Z,95256.03
2023-01-12T16:10:11.630Z,95270.19
2023-01-12T16:12:38.462Z,95273.97
2023-01-12T16:15:13.691Z,95277.78
2023-01-12T16:17:40.317Z,95261.47
2023-01-12T16:20:07.673Z,95265.25
2023-01-12T16:22:34.354Z,95261.00
2023-01-12T16:25:01.017Z,95267.38
2023-01-12T16:27:28.094Z,95286.97
2023-01-12T16:29:55.013Z,95274.81
2023-01-12T16:32:26.682Z,95284.53
2023-01-12T16:34:53.796Z,95272.00
2023-01-12T16:37:23.276Z,95281.53
2023-01-12T16:39:50.240Z,95289.53
2023-01-12T16:42:17.159Z,95264.34
2023-01-12T16:44:43.765Z,95289.09
2023-01-12T16:47:13.943Z,95270.34
2023-01-12T16:49:40.739Z,95295.22
2023-01-12T16:52:09.432Z,95297.09
2023-01-12T16:54:41.695Z,95290.25
2023-01-12T16:57:08.911Z,95304.00
2023-01-12T16:59:35.613Z,95297.88
2023-01-12T17:02:07.781Z,95273.13
2023-01-12T17:04:36.011Z,95300.16
2023-01-12T17:07:03.950Z,95307.50
2023-01-12T17:09:31.321Z,95305.63
2023-01-12T17:11:59.703Z,95306.84
2023-01-12T17:14:27.869Z,95305.25
2023-01-12T17:16:57.353Z,95303.75
2023-01-12T17:19:26.256Z,95322.13
2023-01-12T17:21:55.017Z,95314.94
2023-01-12T17:24:22.450Z,95321.31
2023-01-12T17:26:51.433Z,95333.31
2023-01-12T17:29:18.544Z,95314.56
2023-01-12T17:31:45.396Z,95317.16
2023-01-12T17:34:13.350Z,95339.03
2023-01-12T17:36:40.808Z,95337.13
2023-01-12T17:39:08.378Z,95339.75
2023-01-12T17:41:54.077Z,95319.59
2023-01-12T17:44:21.263Z,95336.34
2023-01-12T17:46:48.424Z,95335.94
2023-01-12T17:49:15.557Z,95341.00
2023-01-12T17:51:42.304Z,95347.47
2023-01-12T17:54:12.216Z,95338.22
2023-01-12T17:56:38.857Z,95337.53
2023-01-12T17:59:05.901Z,95330.59
2023-01-12T18:01:34.890Z,95354.31
2023-01-12T18:04:02.020Z,95344.09
2023-01-12T18:06:29.082Z,95351.69
2023-01-12T18:08:56.955Z,95328.81
2023-01-12T18:11:23.780Z,95356.38
2023-01-12T18:13:50.426Z,95330.31
2023-01-12T18:16:17.643Z,95347.16
2023-01-12T18:18:45.055Z,95351.63
2023-01-12T18:21:14.882Z,95355.88
2023-01-12T18:23:43.668Z,95345.94
2023-01-12T18:26:16.021Z,95360.13
2023-01-12T18:28:42.655Z,95358.53
2023-01-12T18:31:13.306Z,95362.47
2023-01-12T18:33:40.239Z,95360.94
2023-01-12T18:36:22.332Z,95349.56
2023-01-12T18:38:51.133Z,95357.53
2023-01-12T18:41:38.013Z,95359.38
2023-01-12T18:44:06.404Z,95359.75
2023-01-12T18:46:53.325Z,95360.88
2023-01-12T18:49:25.043Z,95354.75
2023-01-12T18:52:10.827Z,95352.91
2023-01-12T18:54:48.241Z,95361.34
2023-01-12T18:57:19.627Z,95347.16
2023-01-12T18:59:47.763Z,95360.66
2023-01-12T19:02:16.696Z,95359.06
2023-01-12T19:04:50.227Z,95357.63
2023-01-12T19:07:51.098Z,95366.06
2023-01-12T19:10:18.112Z,95360.72
2023-01-12T19:12:46.203Z,95360.00
2023-01-12T19:15:32.373Z,95354.53
2023-01-12T19:17:59.251Z,95365.38
2023-01-12T19:20:30.433Z,95359.28
2023-01-12T19:23:17.707Z,95355.41
2023-01-12T19:26:03.037Z,95351.63
2023-01-12T19:28:32.900Z,95352.88
2023-01-12T19:31:01.366Z,95372.41
2023-01-12T19:33:28.665Z,95363.50
2023-01-12T19:35:55.537Z,95362.03
2023-01-12T19:38:22.808Z,95361.31
2023-01-12T19:40:54.364Z,95352.47
2023-01-12T19:43:26.321Z,95357.06
2023-01-12T19:45:59.213Z,95355.19
2023-01-12T19:48:27.011Z,95366.63
2023-01-12T19:50:54.088Z,95367.09
2023-01-12T19:53:28.290Z,95331.44
2023-01-12T19:55:55.178Z,95352.03
2023-01-12T19:58:22.413Z,95355.22
2023-01-12T20:00:50.159Z,95363.97
2023-01-12T20:03:19.200Z,95361.31
2023-01-12T20:05:53.538Z,95342.53
2023-01-12T20:08:23.280Z,95341.41
2023-01-12T20:10:58.081Z,95364.75
2023-01-12T20:13:25.722Z,95352.94
2023-01-12T20:15:53.349Z,95348.31
2023-01-12T20:18:20.231Z,95341.41
2023-01-12T20:20:48.713Z,95356.25
2023-01-12T20:23:16.058Z,95350.59
2023-01-12T20:25:43.902Z,95368.31
2023-01-12T20:28:13.358Z,95346.09
2023-01-12T20:30:41.882Z,95341.09
2023-01-12T20:33:09.403Z,95376.34
2023-01-12T20:35:38.539Z,95368.31
2023-01-12T20:38:15.779Z,95374.72
2023-01-12T20:40:45.131Z,95372.75
2023-01-12T20:43:12.441Z,95370.47
2023-01-12T20:45:42.051Z,95371.97
2023-01-12T20:48:10.788Z,95362.38
2023-01-12T20:50:46.317Z,95354.38
2023-01-12T20:53:15.321Z,95348.28
2023-01-12T20:55:48.185Z,95375.06
2023-01-12T20:58:15.109Z,95361.63
2023-01-12T21:00:42.366Z,95346.31
2023-01-12T21:03:09.149Z,95359.34
2023-01-12T21:05:35.929Z,95352.44
2023-01-12T21:08:08.409Z,95369.66
2023-01-12T21:10:36.382Z,95343.66
2023-01-12T21:13:03.551Z,95345.91
2023-01-12T21:15:30.428Z,95371.13
2023-01-12T21:17:57.529Z,95351.84
2023-01-12T21:20:24.310Z,95347.78
2023-01-12T21:22:51.047Z,95365.75
2023-01-12T21:25:18.419Z,95372.59
2023-01-12T21:27:45.133Z,95322.94
2023-01-12T21:30:12.710Z,95366.25
2023-01-12T21:32:43.560Z,95364.72
2023-01-12T21:35:10.183Z,95373.09
2023-01-12T21:37:36.954Z,95366.56
2023-01-12T21:40:04.447Z,95371.84
2023-01-12T21:42:50.318Z,95359.63
2023-01-12T21:45:17.210Z,95352.81
2023-01-12T21:47:46.355Z,95347.78
2023-01-12T21:50:13.147Z,95361.13
2023-01-12T21:52:41.508Z,95353.09
2023-01-12T21:55:11.345Z,95351.84
2023-01-12T21:57:38.004Z,95353.09
2023-01-12T22:00:05.215Z,95335.91
2023-01-12T22:02:34.030Z,95346.66
2023-01-12T22:05:00.654Z,95339.75
2023-01-12T22:07:28.049Z,95347.03
2023-01-12T22:09:55.132Z,95335.09
2023-01-12T22:12:21.714Z,95346.66
2023-01-12T22:14:48.288Z,95343.25
2023-01-12T22:17:15.085Z,95316.03
2023-01-12T22:19:41.681Z,95354.31
2023-01-12T22:22:08.266Z,95350.06
2023-01-12T22:24:34.866Z,95336.97
2023-01-12T22:27:02.494Z,95329.00
2023-01-12T22:29:29.581Z,95333.16
2023-01-12T22:31:56.220Z,95340.41
2023-01-12T22:34:25.035Z,95321.66
2023-01-12T22:36:51.799Z,95345.41
2023-01-12T22:39:18.370Z,95317.47
2023-01-12T22:41:44.977Z,95338.53
2023-01-12T22:44:11.615Z,95338.09
2023-01-12T22:46:38.572Z,95311.34
2023-01-12T22:49:05.178Z,95329.25
2023-01-12T22:51:31.785Z,95314.84
2023-01-12T22:53:58.818Z,95324.75
2023-01-12T22:56:25.646Z,95332.03
2023-01-12T22:58:55.206Z,95328.19
2023-01-12T23:01:23.386Z,95326.25
2023-01-12T23:03:54.273Z,95317.13
2023-01-12T23:06:22.490Z,95340.00
2023-01-12T23:08:50.132Z,95335.41
2023-01-12T23:11:22.950Z,95335.84
2023-01-12T23:13:50.096Z,95331.59
2023-01-12T23:16:17.790Z,95306.75
2023-01-12T23:18:46.206Z,95338.53
2023-01-12T23:21:24.911Z,95334.34
2023-01-12T23:23:57.139Z,95309.00
2023-01-12T23:26:28.089Z,95321.19
2023-01-12T23:28:57.264Z,95317.88
2023-01-12T23:31:26.705Z,95323.22
2023-01-12T23:33:53.520Z,95323.97
2023-01-12T23:36:23.007Z,95328.59
2023-01-12T23:38:58.049Z,95327.34
2023-01-12T23:41:27.696Z,95336.50
2023-01-12T23:43:57.639Z,95326.22
2023-01-12T23:46:24.632Z,95335.78
2023-01-12T23:48:52.988Z,95333.78
2023-01-12T23:51:20.328Z,95332.19
2023-01-12T23:53:47.319Z,95335.22
2023-01-12T23:56:16.493Z,95332.66
2023-01-12T23:58:43.783Z,95335.78
